createdAt,value
2022-10-19T00:19:25.482Z,32.78
2022-10-19T00:49:31.625Z,26.70
2022-10-19T01:20:13.848Z,24.27
2022-10-19T02:51:30.502Z,20.52
2022-10-19T03:21:35.026Z,22.83
2022-10-19T03:51:39.172Z,23.40
2022-10-19T04:21:44.778Z,22.77
2022-10-19T04:51:48.860Z,16.00
2022-10-19T05:21:52.964Z,15.15
2022-10-19T05:51:57.135Z,13.48
2022-10-19T06:22:01.289Z,16.48
2022-10-19T06:52:07.674Z,17.25
2022-10-19T07:22:15.534Z,15.70
2022-10-19T07:52:22.966Z,14.60
2022-10-19T08:22:27.191Z,13.75
2022-10-19T08:52:34.675Z,12.82
2022-10-19T09:22:39.035Z,13.38
2022-10-19T09:52:43.854Z,14.27
2022-10-19T10:22:57.585Z,8.73
2022-10-19T10:53:03.310Z,7.90
2022-10-19T11:23:15.752Z,9.75
2022-10-19T11:53:26.884Z,6.93
2022-10-19T12:23:33.909Z,9.18
2022-10-19T12:53:39.954Z,11.98
2022-10-19T13:23:45.344Z,10.40
2022-10-19T13:53:53.342Z,7.32
2022-10-19T14:23:57.468Z,8.88
2022-10-19T14:54:05.197Z,10.32
2022-10-19T15:24:22.654Z,8.45
2022-10-19T15:54:26.942Z,8.80
2022-10-19T16:24:31.077Z,8.30
2022-10-19T16:54:35.227Z,8.35
2022-10-19T17:24:39.930Z,4.25
2022-10-19T17:54:54.638Z,8.38
2022-10-19T18:25:08.976Z,6.78
2022-10-19T18:55:13.277Z,9.60
2022-10-19T19:25:17.716Z,7.93
2022-10-19T19:55:21.904Z,13.18
2022-10-19T20:25:26.054Z,14.05
2022-10-19T20:55:30.480Z,13.30
2022-10-19T21:25:34.589Z,13.95
2022-10-19T21:55:38.820Z,19.80
2022-10-19T22:25:43.183Z,12.80
2022-10-19T22:55:47.359Z,13.40
2022-10-19T23:26:02.176Z,12.70
2022-10-19T23:56:07.895Z,11.50
